createdAt,value
2018-04-29T00:02:22.003Z,8.20
2018-04-29T00:04:49.505Z,8.30
2018-04-29T00:07:17.028Z,8.60
2018-04-29T00:09:44.678Z,8.83
2018-04-29T00:12:12.204Z,8.00
2018-04-29T00:14:39.813Z,7.37
2018-04-29T00:17:07.927Z,7.80
2018-04-29T00:19:35.469Z,8.53
2018-04-29T00:22:03.213Z,8.40
2018-04-29T00:24:30.722Z,8.43
2018-04-29T00:26:58.239Z,7.53
2018-04-29T00:29:25.983Z,7.67
2018-04-29T00:31:53.474Z,8.50
2018-04-29T00:34:21.116Z,9.03
2018-04-29T00:36:48.643Z,9.53
2018-04-29T00:39:17.562Z,8.67
2018-04-29T00:41:45.326Z,8.37
2018-04-29T00:44:13.094Z,8.20
2018-04-29T00:46:40.596Z,8.50
2018-04-29T00:49:08.317Z,8.83
2018-04-29T00:51:47.750Z,8.80
2018-04-29T00:54:15.280Z,10.60
2018-04-29T00:56:42.794Z,8.57
2018-04-29T00:59:10.330Z,9.13
2018-04-29T01:01:37.890Z,8.33
2018-04-29T01:04:05.424Z,9.07
2018-04-29T01:06:32.926Z,8.40
2018-04-29T01:09:00.571Z,9.77
2018-04-29T01:11:28.070Z,9.87
2018-04-29T01:13:55.609Z,9.30
2018-04-29T01:16:23.116Z,9.00
2018-04-29T01:18:50.674Z,8.90
2018-04-29T01:21:19.085Z,8.97
2018-04-29T01:23:47.399Z,9.20
2018-04-29T01:26:14.912Z,8.67
2018-04-29T01:28:42.430Z,9.07
2018-04-29T01:31:10.130Z,7.70
2018-04-29T01:33:37.645Z,9.87
2018-04-29T01:36:05.159Z,8.67
2018-04-29T01:38:32.777Z,9.20
2018-04-29T01:41:00.281Z,8.43
2018-04-29T01:43:28.024Z,9.20
2018-04-29T01:45:55.791Z,8.27
2018-04-29T01:48:23.548Z,9.00
2018-04-29T01:50:51.049Z,8.67
2018-04-29T01:53:19.305Z,7.67
2018-04-29T01:55:47.623Z,8.30
2018-04-29T01:58:15.129Z,8.87
2018-04-29T02:00:43.405Z,9.00
2018-04-29T02:03:11.053Z,10.53
2018-04-29T02:05:38.813Z,8.60
2018-04-29T02:08:06.339Z,8.87
2018-04-29T02:10:34.222Z,10.13
2018-04-29T02:13:01.773Z,9.60
2018-04-29T02:15:29.282Z,9.73
2018-04-29T02:17:56.784Z,9.53
2018-04-29T02:20:24.902Z,9.07
2018-04-29T02:22:52.408Z,9.60
2018-04-29T02:25:19.999Z,8.97
2018-04-29T02:27:47.766Z,9.20
2018-04-29T02:30:15.405Z,9.20
2018-04-29T02:32:42.989Z,9.50
2018-04-29T02:35:10.503Z,9.43
2018-04-29T02:37:38.018Z,10.40
2018-04-29T02:40:05.542Z,8.70
2018-04-29T02:42:33.118Z,10.23
2018-04-29T02:45:00.881Z,9.93
2018-04-29T02:47:28.954Z,10.13
2018-04-29T02:49:56.492Z,9.53
2018-04-29T02:52:23.994Z,10.20
2018-04-29T02:54:51.631Z,9.90
2018-04-29T02:57:19.135Z,9.70
2018-04-29T02:59:46.854Z,10.23
2018-04-29T03:02:14.646Z,10.10
2018-04-29T03:04:42.387Z,9.57
2018-04-29T03:07:09.882Z,9.77
2018-04-29T03:09:37.422Z,10.80
2018-04-29T03:12:04.944Z,10.40
2018-04-29T03:14:32.521Z,11.00
2018-04-29T03:17:00.046Z,11.13
2018-04-29T03:19:27.742Z,10.73
2018-04-29T03:21:55.263Z,11.60
2018-04-29T03:24:22.781Z,10.70
2018-04-29T03:26:50.410Z,10.43
2018-04-29T03:29:17.957Z,11.27
2018-04-29T03:31:45.473Z,10.30
2018-04-29T03:34:12.990Z,11.37
2018-04-29T03:36:40.514Z,11.93
2018-04-29T03:39:08.046Z,11.47
2018-04-29T03:41:35.771Z,11.43
2018-04-29T03:44:03.539Z,12.70
2018-04-29T03:46:31.282Z,12.20
2018-04-29T03:48:58.820Z,11.53
2018-04-29T03:51:26.817Z,11.07
2018-04-29T03:53:54.582Z,11.43
2018-04-29T03:56:22.346Z,12.70
2018-04-29T03:59:01.788Z,11.90
2018-04-29T04:01:51.280Z,11.93
2018-04-29T04:04:09.289Z,12.97
2018-04-29T04:06:36.810Z,13.20
2018-04-29T04:09:04.326Z,13.90
2018-04-29T04:11:31.966Z,14.33
2018-04-29T04:13:59.487Z,13.27
2018-04-29T04:16:26.993Z,14.40
2018-04-29T04:18:54.513Z,14.97
2018-04-29T04:21:22.094Z,14.53
2018-04-29T04:23:49.618Z,14.53
2018-04-29T04:26:17.119Z,15.37
2018-04-29T04:28:44.618Z,14.53
2018-04-29T04:31:12.221Z,14.67
2018-04-29T04:33:40.266Z,14.20
2018-04-29T04:36:07.894Z,13.93
2018-04-29T04:38:36.173Z,16.40
2018-04-29T04:41:03.874Z,14.73
2018-04-29T04:43:31.664Z,15.13
2018-04-29T04:45:59.437Z,15.37
2018-04-29T04:48:26.968Z,14.10
2018-04-29T04:50:54.483Z,16.03
2018-04-29T04:53:22.752Z,15.60
2018-04-29T04:55:50.270Z,16.33
2018-04-29T04:58:17.934Z,15.70
2018-04-29T05:00:45.450Z,15.23
2018-04-29T05:03:12.958Z,15.80
2018-04-29T05:05:40.475Z,15.63
2018-04-29T05:08:08.068Z,14.40
2018-04-29T05:10:35.608Z,14.43
2018-04-29T05:13:03.123Z,15.43
2018-04-29T05:15:31.666Z,15.27
2018-04-29T05:17:59.179Z,15.17
2018-04-29T05:20:27.194Z,16.23
2018-04-29T05:22:54.701Z,15.33
2018-04-29T05:25:22.415Z,16.50
2018-04-29T05:27:49.921Z,16.93
2018-04-29T05:30:17.633Z,17.83
2018-04-29T05:32:45.168Z,18.43
2018-04-29T05:35:12.854Z,17.70
2018-04-29T05:37:40.365Z,16.40
2018-04-29T05:40:08.077Z,17.10
2018-04-29T05:42:35.850Z,15.73
2018-04-29T05:45:03.374Z,15.70
2018-04-29T05:47:31.064Z,16.90
2018-04-29T05:49:58.577Z,14.80
2018-04-29T05:52:26.286Z,16.13
2018-04-29T05:54:53.790Z,17.27
2018-04-29T05:57:21.312Z,16.10
2018-04-29T05:59:48.967Z,16.50
2018-04-29T06:02:16.723Z,14.93
2018-04-29T06:04:44.224Z,13.67
2018-04-29T06:07:12.555Z,13.90
2018-04-29T06:09:40.062Z,16.33
2018-04-29T06:12:08.102Z,13.10
2018-04-29T06:14:35.722Z,12.90
2018-04-29T06:17:04.339Z,13.30
2018-04-29T06:19:31.991Z,13.53
2018-04-29T06:21:59.506Z,12.27
2018-04-29T06:24:27.015Z,12.80
2018-04-29T06:26:54.539Z,11.60
2018-04-29T06:29:22.041Z,12.40
2018-04-29T06:31:49.572Z,10.67
2018-04-29T06:34:17.323Z,11.00
2018-04-29T06:36:45.106Z,11.43
2018-04-29T06:39:12.739Z,11.90
2018-04-29T06:41:40.248Z,12.13
2018-04-29T06:44:07.758Z,10.87
2018-04-29T06:46:35.289Z,12.90
2018-04-29T06:49:02.817Z,12.70
2018-04-29T06:51:30.339Z,13.57
2018-04-29T06:53:57.916Z,12.37
2018-04-29T06:56:25.434Z,11.07
2018-04-29T06:58:52.958Z,12.10
2018-04-29T07:01:20.489Z,13.40
2018-04-29T07:03:48.055Z,12.47
2018-04-29T07:06:15.582Z,11.20
2018-04-29T07:08:43.279Z,12.20
2018-04-29T07:11:11.026Z,11.83
2018-04-29T07:13:38.797Z,12.67
2018-04-29T07:16:06.314Z,13.47
2018-04-29T07:18:33.818Z,12.93
2018-04-29T07:21:01.343Z,10.10
2018-04-29T07:23:28.926Z,10.57
2018-04-29T07:25:56.545Z,12.00
2018-04-29T07:28:24.814Z,12.07
2018-04-29T07:30:52.488Z,11.63
2018-04-29T07:33:20.285Z,11.77
2018-04-29T07:35:47.809Z,12.43
2018-04-29T07:38:15.487Z,11.40
2018-04-29T07:40:42.997Z,13.30
2018-04-29T07:43:10.514Z,11.07
2018-04-29T07:45:38.024Z,11.40
2018-04-29T07:48:06.353Z,9.90
2018-04-29T07:50:33.870Z,11.93
2018-04-29T07:53:01.387Z,10.53
2018-04-29T07:55:29.011Z,12.00
2018-04-29T07:57:56.677Z,10.20
2018-04-29T08:00:24.473Z,12.43
2018-04-29T08:02:52.230Z,11.00
2018-04-29T08:05:19.729Z,12.60
2018-04-29T08:07:47.421Z,11.40
2018-04-29T08:10:15.211Z,11.93
2018-04-29T08:12:42.732Z,9.83
2018-04-29T08:15:10.247Z,10.70
2018-04-29T08:17:37.770Z,11.40
2018-04-29T08:20:05.336Z,12.77
2018-04-29T08:22:32.877Z,10.97
2018-04-29T08:25:00.538Z,11.10
2018-04-29T08:27:28.061Z,10.13
2018-04-29T08:29:55.579Z,10.83
2018-04-29T08:32:23.101Z,12.43
2018-04-29T08:34:50.690Z,11.40
2018-04-29T08:37:18.202Z,10.70
2018-04-29T08:39:45.910Z,10.63
2018-04-29T08:42:13.430Z,12.03
2018-04-29T08:44:41.105Z,10.43
2018-04-29T08:47:08.905Z,10.70
2018-04-29T08:49:36.429Z,10.40
2018-04-29T08:52:04.026Z,9.60
2018-04-29T08:54:31.553Z,10.87
2018-04-29T08:56:59.347Z,11.57
2018-04-29T08:59:26.864Z,9.97
2018-04-29T09:01:54.381Z,11.87
2018-04-29T09:04:21.890Z,10.53
2018-04-29T09:06:49.470Z,9.27
2018-04-29T09:09:17.411Z,10.43
2018-04-29T09:11:44.999Z,10.47
2018-04-29T09:14:12.632Z,9.23
2018-04-29T09:16:40.123Z,9.30
2018-04-29T09:19:07.682Z,10.10
2018-04-29T09:21:35.458Z,8.63
2018-04-29T09:24:03.201Z,10.93
2018-04-29T09:26:30.975Z,8.67
2018-04-29T09:28:58.646Z,9.40
2018-04-29T09:31:26.158Z,8.13
2018-04-29T09:33:53.665Z,9.60
2018-04-29T09:36:21.372Z,8.10
2018-04-29T09:38:48.894Z,9.23
2018-04-29T09:41:16.595Z,11.37
2018-04-29T09:43:44.245Z,9.43
2018-04-29T09:46:11.858Z,9.80
2018-04-29T09:48:39.380Z,8.63
2018-04-29T09:51:07.067Z,10.93
2018-04-29T09:53:34.694Z,9.10
2018-04-29T09:56:02.231Z,9.70
2018-04-29T09:58:29.766Z,9.20
2018-04-29T10:00:57.331Z,9.70
2018-04-29T10:03:24.782Z,9.23
2018-04-29T10:05:53.062Z,8.30
2018-04-29T10:08:20.577Z,8.97
2018-04-29T10:10:48.273Z,9.00
2018-04-29T10:13:16.024Z,9.10
2018-04-29T10:15:44.058Z,9.63
2018-04-29T10:18:11.574Z,24.50
2018-04-29T10:20:39.314Z,32.37
2018-04-29T10:23:06.836Z,30.03
2018-04-29T10:25:34.538Z,18.87
2018-04-29T10:28:02.074Z,17.77
2018-04-29T10:30:29.598Z,14.97
2018-04-29T10:32:57.113Z,20.87
2018-04-29T10:35:24.634Z,22.90
2018-04-29T10:37:52.151Z,12.40
2018-04-29T10:40:19.664Z,12.87
2018-04-29T10:42:47.188Z,14.50
2018-04-29T10:45:14.772Z,10.83
2018-04-29T10:47:42.273Z,10.63
2018-04-29T10:50:10.550Z,11.53
2018-04-29T10:52:38.090Z,11.37
2018-04-29T10:55:05.619Z,12.00
2018-04-29T10:57:33.142Z,10.20
2018-04-29T11:00:01.427Z,11.60
2018-04-29T11:02:29.114Z,10.33
2018-04-29T11:04:56.637Z,10.27
2018-04-29T11:07:24.150Z,10.50
2018-04-29T11:09:51.676Z,9.73
2018-04-29T11:12:19.285Z,11.77
2018-04-29T11:14:46.804Z,8.87
2018-04-29T11:17:14.446Z,10.33
2018-04-29T11:19:41.974Z,7.63
2018-04-29T11:22:09.782Z,13.60
2018-04-29T11:24:37.242Z,9.40
2018-04-29T11:27:04.930Z,11.40
2018-04-29T11:29:32.450Z,12.73
2018-04-29T11:32:00.149Z,10.20
2018-04-29T11:34:27.684Z,9.87
2018-04-29T11:36:55.190Z,10.90
2018-04-29T11:39:22.817Z,11.70
2018-04-29T11:41:50.331Z,9.50
2018-04-29T11:44:17.836Z,12.00
2018-04-29T11:46:45.346Z,11.40
2018-04-29T11:49:13.640Z,11.80
2018-04-29T11:51:41.209Z,10.23
2018-04-29T11:54:08.730Z,11.93
2018-04-29T11:56:36.557Z,13.00
2018-04-29T11:59:04.352Z,11.93
2018-04-29T12:01:32.630Z,12.20
2018-04-29T12:04:00.933Z,12.27
2018-04-29T12:06:28.504Z,9.73
2018-04-29T12:08:56.023Z,9.23
2018-04-29T12:11:23.750Z,10.57
2018-04-29T12:13:51.282Z,9.00
2018-04-29T12:16:19.570Z,8.73
2018-04-29T12:18:47.077Z,9.93
2018-04-29T12:21:15.511Z,9.57
2018-04-29T12:23:43.022Z,7.37
2018-04-29T12:26:11.306Z,10.73
2018-04-29T12:28:38.821Z,8.90
2018-04-29T12:31:06.480Z,10.73
2018-04-29T12:33:34.023Z,10.40
2018-04-29T12:36:02.080Z,9.43
2018-04-29T12:38:29.761Z,9.27
2018-04-29T12:40:57.270Z,9.10
2018-04-29T12:43:25.635Z,9.20
2018-04-29T12:45:53.150Z,9.13
2018-04-29T12:48:20.822Z,8.63
2018-04-29T12:50:48.338Z,10.10
2018-04-29T12:53:16.009Z,9.43
2018-04-29T12:55:44.401Z,9.27
2018-04-29T12:58:12.057Z,11.00
2018-04-29T13:00:39.620Z,11.30
2018-04-29T13:03:07.162Z,10.90
2018-04-29T13:05:34.936Z,11.50
2018-04-29T13:08:02.534Z,11.07
2018-04-29T13:10:30.054Z,10.27
2018-04-29T13:12:57.564Z,8.50
2018-04-29T13:15:25.903Z,9.00
2018-04-29T13:17:53.676Z,9.00
2018-04-29T13:20:21.189Z,10.20
2018-04-29T13:22:48.707Z,10.13
2018-04-29T13:25:16.361Z,11.53
2018-04-29T13:27:43.886Z,10.03
2018-04-29T13:30:11.398Z,9.50
2018-04-29T13:32:39.677Z,10.37
2018-04-29T13:35:07.417Z,8.83
2018-04-29T13:37:36.433Z,8.53
2018-04-29T13:40:04.341Z,9.50
2018-04-29T13:42:31.942Z,8.83
2018-04-29T13:44:59.466Z,9.00
2018-04-29T13:47:26.976Z,9.03
2018-04-29T13:49:55.195Z,8.60
2018-04-29T13:52:22.920Z,9.50
2018-04-29T13:54:50.343Z,10.17
2018-04-29T13:57:17.893Z,9.27
2018-04-29T13:59:45.406Z,9.13
2018-04-29T14:02:12.984Z,8.63
2018-04-29T14:04:40.546Z,14.17
2018-04-29T14:07:08.370Z,10.10
2018-04-29T14:09:35.868Z,10.10
2018-04-29T14:12:03.366Z,9.67
2018-04-29T14:14:31.011Z,11.00
2018-04-29T14:16:58.770Z,11.80
2018-04-29T14:19:26.294Z,10.63
2018-04-29T14:21:53.809Z,10.80
2018-04-29T14:24:21.315Z,11.73
2018-04-29T14:26:48.940Z,11.93
2018-04-29T14:29:16.584Z,11.63
2018-04-29T14:31:44.104Z,10.70
2018-04-29T14:34:12.681Z,10.93
2018-04-29T14:36:40.241Z,11.57
2018-04-29T14:39:07.703Z,11.00
2018-04-29T14:41:35.216Z,12.00
2018-04-29T14:44:02.726Z,11.23
2018-04-29T14:46:30.395Z,11.23
2018-04-29T14:48:57.908Z,11.23
2018-04-29T14:51:26.218Z,11.27
2018-04-29T14:53:53.932Z,11.87
2018-04-29T14:56:21.446Z,12.57
2018-04-29T14:58:49.222Z,12.33
2018-04-29T15:01:16.741Z,12.53
2018-04-29T15:03:44.420Z,11.90
2018-04-29T15:06:11.943Z,13.47
2018-04-29T15:08:39.475Z,13.40
2018-04-29T15:11:07.964Z,14.17
2018-04-29T15:13:36.242Z,15.20
2018-04-29T15:16:05.263Z,15.80
2018-04-29T15:18:44.463Z,14.80
2018-04-29T15:21:13.090Z,14.80
2018-04-29T15:23:40.590Z,13.30
2018-04-29T15:26:08.561Z,15.13
2018-04-29T15:28:36.765Z,17.30
2018-04-29T15:31:04.290Z,16.63
2018-04-29T15:33:31.811Z,18.20
2018-04-29T15:35:59.334Z,17.70
2018-04-29T15:38:27.605Z,18.10
2018-04-29T15:40:55.325Z,18.17
2018-04-29T15:43:22.837Z,18.90
2018-04-29T15:45:52.714Z,18.80
2018-04-29T15:48:20.231Z,18.20
2018-04-29T15:50:47.741Z,19.90
2018-04-29T15:53:15.254Z,19.90
2018-04-29T15:55:42.834Z,19.90
2018-04-29T15:58:11.333Z,18.30
2018-04-29T16:00:38.748Z,19.20
2018-04-29T16:03:07.055Z,17.80
2018-04-29T16:05:34.594Z,19.23
2018-04-29T16:08:02.278Z,18.37
2018-04-29T16:10:29.803Z,18.60
2018-04-29T16:12:57.489Z,19.30
2018-04-29T16:15:25.010Z,17.97
2018-04-29T16:17:52.580Z,18.23
2018-04-29T16:20:20.248Z,16.60
2018-04-29T16:22:47.942Z,17.23
2018-04-29T16:25:15.459Z,16.33
2018-04-29T16:27:43.146Z,16.77
2018-04-29T16:30:10.921Z,15.87
2018-04-29T16:32:38.450Z,16.17
2018-04-29T16:35:05.957Z,17.70
2018-04-29T16:37:33.700Z,18.03
2018-04-29T16:40:01.352Z,16.00
2018-04-29T16:42:28.885Z,16.40
2018-04-29T16:44:56.709Z,16.43
2018-04-29T16:47:25.000Z,25.97
2018-04-29T16:49:52.713Z,17.90
2018-04-29T16:52:20.289Z,32.17
2018-04-29T16:54:47.930Z,21.00
2018-04-29T16:57:15.450Z,18.30
2018-04-29T16:59:43.121Z,17.30
2018-04-29T17:02:10.634Z,18.90
2018-04-29T17:04:38.995Z,19.20
2018-04-29T17:07:06.515Z,20.03
2018-04-29T17:09:34.291Z,20.87
2018-04-29T17:12:01.982Z,22.33
2018-04-29T17:14:29.486Z,24.07
2018-04-29T17:16:57.041Z,23.17
2018-04-29T17:19:25.326Z,23.23
2018-04-29T17:21:53.022Z,24.60
2018-04-29T17:24:20.533Z,24.80
2018-04-29T17:26:48.056Z,24.50
2018-04-29T17:29:16.771Z,23.57
2018-04-29T17:31:44.200Z,25.50
2018-04-29T17:34:11.843Z,25.07
2018-04-29T17:36:39.355Z,23.40
2018-04-29T17:39:07.061Z,23.97
2018-04-29T17:41:34.829Z,26.70
2018-04-29T17:44:02.360Z,24.50
2018-04-29T17:46:29.866Z,24.10
2018-04-29T17:48:57.376Z,22.07
2018-04-29T17:51:24.894Z,24.67
2018-04-29T17:53:52.413Z,24.40
2018-04-29T17:56:19.933Z,23.03
2018-04-29T17:58:47.650Z,24.77
2018-04-29T18:01:15.419Z,24.70
2018-04-29T18:03:42.933Z,23.07
2018-04-29T18:06:10.443Z,23.10
2018-04-29T18:08:38.091Z,25.10
2018-04-29T18:11:05.842Z,26.90
2018-04-29T18:13:33.608Z,25.90
2018-04-29T18:16:01.122Z,27.00
2018-04-29T18:18:28.797Z,26.60
2018-04-29T18:20:56.329Z,27.10
2018-04-29T18:23:24.233Z,27.63
2018-04-29T18:25:52.238Z,27.27
2018-04-29T18:28:19.859Z,27.83
2018-04-29T18:30:47.369Z,27.77
2018-04-29T18:33:15.669Z,25.60
2018-04-29T18:35:43.194Z,27.50
2018-04-29T18:38:10.701Z,28.07
2018-04-29T18:40:38.237Z,28.57
2018-04-29T18:43:06.823Z,27.00
2018-04-29T18:45:34.814Z,27.90
2018-04-29T18:48:02.330Z,45.63
2018-04-29T18:50:30.093Z,25.40
2018-04-29T18:52:57.584Z,26.23
2018-04-29T18:55:25.277Z,27.77
2018-04-29T18:57:53.121Z,27.00
2018-04-29T19:00:20.620Z,27.57
2018-04-29T19:02:48.159Z,26.33
2018-04-29T19:05:15.662Z,31.00
2018-04-29T19:07:43.202Z,29.63
2018-04-29T19:10:10.946Z,26.90
2018-04-29T19:12:38.706Z,27.70
2018-04-29T19:15:06.251Z,27.43
2018-04-29T19:17:33.902Z,29.60
2018-04-29T19:20:01.418Z,28.83
2018-04-29T19:22:29.144Z,26.23
2018-04-29T19:24:56.662Z,26.47
2018-04-29T19:27:24.348Z,27.20
2018-04-29T19:29:52.140Z,24.50
2018-04-29T19:32:19.649Z,25.10
2018-04-29T19:34:47.348Z,25.37
2018-04-29T19:37:15.119Z,25.80
2018-04-29T19:39:42.638Z,25.87
2018-04-29T19:42:10.815Z,25.53
2018-04-29T19:44:38.369Z,26.60
2018-04-29T19:47:06.394Z,26.20
2018-04-29T19:49:33.954Z,26.50
2018-04-29T19:52:01.693Z,26.00
2018-04-29T19:54:29.194Z,26.80
2018-04-29T19:56:57.705Z,26.57
2018-04-29T19:59:25.202Z,25.67
2018-04-29T20:01:52.722Z,26.43
2018-04-29T20:04:20.242Z,25.40
2018-04-29T20:06:47.954Z,26.83
2018-04-29T20:09:15.739Z,25.97
2018-04-29T20:11:43.242Z,25.53
2018-04-29T20:14:11.474Z,23.40
2018-04-29T20:16:39.039Z,25.73
2018-04-29T20:19:06.803Z,29.97
2018-04-29T20:21:34.320Z,27.93
2018-04-29T20:24:01.966Z,25.67
2018-04-29T20:26:29.489Z,27.27
2018-04-29T20:28:57.465Z,26.50
2018-04-29T20:31:24.999Z,28.23
2018-04-29T20:33:52.502Z,28.60
2018-04-29T20:36:20.206Z,27.07
2018-04-29T20:38:47.741Z,25.50
2018-04-29T20:41:15.263Z,29.47
2018-04-29T20:43:43.560Z,27.83
2018-04-29T20:46:11.326Z,27.07
2018-04-29T20:48:39.026Z,28.97
2018-04-29T20:51:06.786Z,26.80
2018-04-29T20:53:34.406Z,29.87
2018-04-29T20:56:02.126Z,26.90
2018-04-29T20:58:29.750Z,27.73
2018-04-29T21:00:57.287Z,28.37
2018-04-29T21:03:24.803Z,28.40
2018-04-29T21:05:52.318Z,26.07
2018-04-29T21:08:19.935Z,28.67
2018-04-29T21:10:48.016Z,27.20
2018-04-29T21:13:15.650Z,27.73
2018-04-29T21:15:43.250Z,27.40
2018-04-29T21:18:10.973Z,27.10
2018-04-29T21:20:38.498Z,28.80
2018-04-29T21:23:06.793Z,28.70
2018-04-29T21:25:34.899Z,28.53
2018-04-29T21:28:03.165Z,25.27
2018-04-29T21:30:30.787Z,23.90
2018-04-29T21:32:58.764Z,26.00
2018-04-29T21:35:26.439Z,27.40
2018-04-29T21:37:54.802Z,28.70
2018-04-29T21:40:22.289Z,27.47
2018-04-29T21:42:50.018Z,25.70
2018-04-29T21:45:19.451Z,28.70
2018-04-29T21:47:47.618Z,26.17
2018-04-29T21:50:17.581Z,26.87
2018-04-29T21:52:45.846Z,26.20
2018-04-29T21:55:13.756Z,25.57
2018-04-29T21:57:41.460Z,24.67
2018-04-29T22:00:10.692Z,25.17
2018-04-29T22:02:38.335Z,25.97
2018-04-29T22:05:06.819Z,24.80
2018-04-29T22:07:37.122Z,26.47
2018-04-29T22:10:06.670Z,25.70
2018-04-29T22:12:34.986Z,25.87
2018-04-29T22:15:02.750Z,25.10
2018-04-29T22:17:30.405Z,24.93
2018-04-29T22:19:59.035Z,24.00
2018-04-29T22:22:27.748Z,23.90
2018-04-29T22:24:59.188Z,23.00
2018-04-29T22:27:29.970Z,24.33
2018-04-29T22:29:57.950Z,24.17
2018-04-29T22:32:27.400Z,22.00
2018-04-29T22:34:55.792Z,23.70
2018-04-29T22:37:26.282Z,23.20
2018-04-29T22:39:53.798Z,20.60
2018-04-29T22:42:21.303Z,20.93
2018-04-29T22:44:50.104Z,22.27
2018-04-29T22:47:17.601Z,20.17
2018-04-29T22:49:45.127Z,20.33
2018-04-29T22:52:16.620Z,19.83
2018-04-29T22:54:49.094Z,21.07
2018-04-29T22:57:16.803Z,18.57
2018-04-29T22:59:45.128Z,18.40
2018-04-29T23:02:14.744Z,17.73
2018-04-29T23:04:42.274Z,18.90
2018-04-29T23:07:09.783Z,18.67
2018-04-29T23:09:40.488Z,18.30
2018-04-29T23:12:08.000Z,18.93
2018-04-29T23:14:35.811Z,18.13
2018-04-29T23:17:06.687Z,18.80
2018-04-29T23:19:34.472Z,17.13
2018-04-29T23:22:01.986Z,17.90
2018-04-29T23:24:30.269Z,16.77
2018-04-29T23:26:57.795Z,16.53
2018-04-29T23:29:25.430Z,16.40
2018-04-29T23:31:53.205Z,17.03
2018-04-29T23:34:21.145Z,16.03
2018-04-29T23:36:48.756Z,15.83
2018-04-29T23:39:16.498Z,15.17
2018-04-29T23:41:44.255Z,14.57
2018-04-29T23:44:11.778Z,15.67
2018-04-29T23:46:39.302Z,14.60
2018-04-29T23:49:06.827Z,15.43
2018-04-29T23:51:34.396Z,15.27
2018-04-29T23:54:01.910Z,13.63
2018-04-29T23:56:29.422Z,12.93
2018-04-29T23:58:56.942Z,14.70
